Latest Weather Observations for Cairns

IDQ60801

Issued at 7:05 pm EST Saturday 23 August 2014 (issued every 30 minutes, with the page automatically refreshed every 10 minutes)

About weather observations | Map of weather stations | Latest weather observations for QLD | Other Formats
Station Details ID: 031011 Name: CAIRNS AERO Lat: -16.87 Lon: 145.75 Height: 2.22 m
Data from the previous 72 hours. | See also: Recent months at Cairns
Date/Time
EST
Temp
°C
App
Temp
°C
Dew
Point
Rel
Hum
%
Delta-T
°C
Wind Press
QNH
hPa
Press
MSL
hPa
Rain
since 9 am
mm
Dir
 
Spd
km/h
Gust
km/h
Spd
kts
Gust
kts
23/07:00pm 21.3 20.7 16.7 75 2.8 SE 15 19 8 10 1018.1 - 0.0
23/06:30pm 21.5 20.6 16.9 75 2.8 SE 17 24 9 13 1017.6 - 0.0
23/06:00pm 22.0 20.2 16.9 73 3.1 SE 22 30 12 16 1017.1 1017.0 0.0
23/05:30pm 23.0 21.2 17.0 69 3.7 SE 22 30 12 16 1016.7 - 0.0
23/05:00pm 24.0 21.8 16.8 64 4.4 SSE 24 32 13 17 1016.4 - 0.0
23/04:30pm 25.0 22.4 16.9 60 5.0 SE 26 32 14 17 1016.0 - 0.0
23/04:00pm 25.3 22.2 16.5 58 5.4 SE 28 33 15 18 1015.9 - 0.0
23/03:30pm 25.5 22.4 16.6 58 5.5 ESE 28 37 15 20 1015.8 - 0.0
23/03:00pm 25.9 22.3 16.3 55 5.9 ESE 30 35 16 19 1015.8 1015.7 0.0
23/02:30pm 26.7 23.1 16.3 53 6.4 ESE 30 37 16 20 1015.8 - 0.0
23/02:00pm 26.0 22.8 16.4 55 5.9 ESE 28 35 15 19 1016.1 - 0.0
23/01:30pm 26.5 22.8 16.1 52 6.4 ESE 30 39 16 21 1016.5 - 0.0
23/01:00pm 27.1 23.5 15.2 48 7.2 ESE 28 37 15 20 1016.8 - 0.0
23/12:30pm 26.7 22.2 14.9 48 7.1 ESE 32 39 17 21 1017.4 - 0.0
23/11:30am 26.6 22.4 15.8 51 6.6 ESE 32 39 17 21 1018.5 - 0.0
23/11:00am 26.5 22.6 15.5 50 6.7 ESE 30 35 16 19 1018.9 - 0.0
23/10:30am 25.9 22.6 14.9 50 6.6 SE 26 33 14 18 1019.3 - 0.0
23/10:00am 25.3 21.3 14.1 50 6.6 SSE 28 35 15 19 1019.5 - 0.0
23/09:30am 24.7 21.2 15.6 57 5.5 SSE 28 35 15 19 1019.6 - 0.0
23/09:00am 23.8 20.9 16.2 62 4.6 SSE 26 33 14 18 1019.4 1019.3 0.0
23/08:30am 23.0 20.7 16.6 67 3.9 SSE 24 33 13 18 1019.3 - 0.0
23/08:00am 21.4 19.0 16.4 73 3.0 SSE 24 33 13 18 1019.0 - 0.0
23/07:30am 21.4 20.1 16.8 75 2.8 S 19 28 10 15 1018.5 - 0.0
23/07:00am 20.9 20.0 16.8 77 2.5 S 17 28 9 15 1018.3 - 0.0
23/06:30am 20.9 20.3 16.6 76 2.6 S 15 24 8 13 1018.1 - 0.0
23/06:00am 20.7 19.7 16.7 78 2.4 S 17 26 9 14 1017.6 1017.5 0.0
23/05:30am 20.8 19.8 16.5 76 2.6 S 17 26 9 14 1017.2 - 0.0
23/05:00am 20.4 19.5 16.8 80 2.2 S 17 26 9 14 1016.8 - 0.0
23/04:30am 20.8 19.9 16.8 78 2.4 SSE 17 26 9 14 1016.6 - 0.0
23/04:00am 21.0 20.4 16.7 76 2.6 S 15 24 8 13 1016.4 - 0.0
23/03:30am 21.0 20.2 17.1 78 2.4 SSE 17 28 9 15 1016.5 - 0.0
23/03:00am 20.9 21.2 17.1 79 2.3 SSE 11 17 6 9 1016.9 1016.8 0.0
23/02:30am 20.8 20.9 17.4 81 2.1 SSE 13 19 7 10 1017.0 - 0.0
23/02:00am 20.9 20.7 17.5 81 2.1 S 15 22 8 12 1017.3 - 0.0
23/01:30am 21.0 21.2 17.6 81 2.1 S 13 20 7 11 1017.4 - 0.0
23/01:00am 20.9 20.7 17.6 81 2.0 SSE 15 20 8 11 1017.7 - 0.0
23/12:30am 21.0 20.0 17.6 81 2.1 S 19 26 10 14 1017.7 - 0.0
23/12:00am 20.9 20.3 17.6 81 2.0 S 17 26 9 14 1017.8 1017.7 0.0
 
Date/Time
EST
Temp
°C
App
Temp
°C
Dew
Point
Rel
Hum
%
Delta-T
°C
Wind Press
QNH
hPa
Press
MSL
hPa
Rain
since 9 am
mm
Dir
 
Spd
km/h
Gust
km/h
Spd
kts
Gust
kts
22/11:30pm 20.8 20.3 17.7 82 1.9 S 17 24 9 13 1018.0 - 0.0
22/11:00pm 20.9 20.7 17.5 81 2.1 S 15 20 8 11 1018.0 - 0.0
22/10:30pm 21.1 20.5 17.5 80 2.2 S 17 26 9 14 1018.0 - 0.0
22/10:00pm 21.1 20.9 17.7 81 2.1 S 15 26 8 14 1018.2 - 0.0
22/09:30pm 21.1 20.9 17.5 80 2.2 SSE 15 22 8 12 1018.2 - 0.0
22/09:00pm 20.9 20.7 17.5 81 2.1 SSE 15 24 8 13 1018.0 1017.9 0.0
22/08:30pm 21.1 20.4 17.3 79 2.3 SSE 17 26 9 14 1017.9 - 0.0
22/08:00pm 21.4 20.6 17.1 76 2.6 S 17 26 9 14 1017.8 - 0.0
22/07:30pm 21.6 20.4 17.4 77 2.6 SSE 20 30 11 16 1017.5 - 0.0
22/07:00pm 21.8 20.5 17.2 75 2.8 SSE 20 30 11 16 1017.1 - 0.0
22/06:30pm 21.9 20.2 17.2 74 2.9 SSE 22 32 12 17 1016.7 - 0.0
22/06:00pm 22.2 19.8 17.3 74 3.0 SSE 26 33 14 18 1016.3 1016.2 0.0
22/05:30pm 23.3 21.6 17.3 69 3.7 ESE 22 30 12 16 1016.1 - 0.0
22/05:00pm 24.0 21.4 16.8 64 4.4 SE 26 32 14 17 1015.9 - 0.0
22/04:30pm 25.0 22.0 16.9 60 5.0 SE 28 33 15 18 1015.7 - 0.0
22/04:00pm 25.5 22.3 16.2 56 5.7 ESE 28 33 15 18 1015.5 - 0.0
22/03:30pm 25.9 22.8 16.5 56 5.8 ESE 28 32 15 17 1015.4 - 0.0
22/03:00pm 26.3 23.3 15.8 52 6.4 ESE 26 32 14 17 1015.4 1015.3 0.0
22/02:30pm 26.5 23.2 15.1 49 6.9 SE 26 33 14 18 1015.4 - 0.0
22/02:00pm 26.7 23.5 15.3 49 6.9 ESE 26 33 14 18 1015.7 - 0.0
22/01:30pm 26.8 23.3 14.6 47 7.3 ESE 26 33 14 18 1016.2 - 0.0
22/01:00pm 26.6 23.9 15.6 50 6.7 ESE 24 32 13 17 1016.7 - 0.0
22/12:30pm 26.5 23.5 14.7 48 7.1 SE 24 28 13 15 1017.0 - 0.0
22/12:00pm 26.9 25.0 15.2 48 7.1 SE 19 28 10 15 1017.6 1017.5 0.0
22/11:30am 26.7 24.6 15.3 49 6.9 ESE 20 28 11 15 1018.1 - 0.0
22/11:00am 26.0 24.0 15.6 52 6.3 SE 20 28 11 15 1018.5 - 0.0
22/10:30am 25.5 23.6 15.2 53 6.2 SSE 19 28 10 15 1018.9 - 0.0
22/10:00am 24.6 23.1 16.2 59 5.1 SSE 19 30 10 16 1019.3 - 0.0
22/09:30am 24.2 23.0 16.1 60 4.9 SSE 17 28 9 15 1019.2 - 0.0
22/09:00am 23.5 22.5 15.5 60 4.8 S 15 20 8 11 1019.0 1018.9 0.0
22/08:30am 22.8 21.7 15.2 62 4.5 S 15 26 8 14 1018.7 - 0.0
22/08:00am 22.0 21.3 15.3 65 4.0 S 13 19 7 10 1018.4 - 0.0
22/07:30am 19.1 17.1 15.5 79 2.1 SE 20 24 11 13 1018.2 - 0.0
22/07:00am 17.9 16.0 15.3 85 1.5 SE 19 22 10 12 1017.7 - 0.0
22/06:30am 17.8 17.5 15.4 86 1.4 SE 11 22 6 12 1017.5 - 0.0
22/06:00am 18.3 17.6 15.4 83 1.7 SE 13 19 7 10 1017.2 1017.1 0.0
22/05:30am 18.2 17.1 15.3 83 1.7 ESE 15 17 8 9 1016.9 - 0.0
22/05:00am 18.2 16.4 15.5 84 1.6 SE 19 24 10 13 1016.6 - 0.0
22/04:30am 18.1 17.5 15.7 86 1.4 SSE 13 19 7 10 1016.3 - 0.0
22/04:00am 18.0 17.5 15.8 87 1.3 SE 13 17 7 9 1016.3 - 0.0
22/03:30am 18.2 16.5 15.8 86 1.4 SE 19 22 10 12 1016.5 - 0.0
22/03:00am 18.4 17.1 15.9 85 1.5 SE 17 19 9 10 1016.6 1016.5 0.0
22/02:30am 18.8 18.0 16.1 84 1.6 SE 15 17 8 9 1016.7 - 0.0
22/02:00am 18.7 18.5 15.6 82 1.8 SE 11 13 6 7 1017.0 - 0.0
22/01:30am 19.1 19.3 15.7 80 2.0 SE 9 13 5 7 1017.2 - 0.0
22/01:00am 19.1 17.9 16.1 83 1.8 SE 17 19 9 10 1017.5 - 0.0
22/12:30am 19.0 17.7 15.8 82 1.9 SE 17 19 9 10 1017.7 - 0.0
22/12:00am 19.6 19.2 16.1 80 2.1 SE 13 17 7 9 1017.9 1017.8 0.0
 
Date/Time
EST
Temp
°C
App
Temp
°C
Dew
Point
Rel
Hum
%
Delta-T
°C
Wind Press
QNH
hPa
Press
MSL
hPa
Rain
since 9 am
mm
Dir
 
Spd
km/h
Gust
km/h
Spd
kts
Gust
kts
21/11:30pm 20.9 20.9 15.1 69 3.4 S 9 17 5 9 1018.0 - 0.0
21/11:00pm 19.7 19.7 16.2 80 2.1 SE 11 15 6 8 1017.9 - 0.0
21/10:30pm 18.9 18.7 15.7 82 1.9 SE 11 15 6 8 1017.9 - 0.0
21/10:00pm 20.4 19.7 15.3 72 3.0 S 13 19 7 10 1017.8 - 0.0
21/09:30pm 20.6 20.3 15.4 72 3.1 S 11 17 6 9 1017.8 - 0.0
21/09:00pm 20.6 20.3 15.4 72 3.1 S 11 17 6 9 1017.7 1017.6 0.0
21/08:30pm 19.9 19.9 15.3 75 2.7 SE 9 11 5 6 1017.6 - 0.0
21/08:00pm 20.5 20.2 15.4 72 3.0 SSE 11 13 6 7 1017.3 - 0.0
21/07:30pm 20.7 20.4 15.5 72 3.1 SSE 11 17 6 9 1017.0 - 0.0
21/07:00pm 20.6 19.8 15.2 71 3.2 SSE 13 13 7 7 1016.7 - 0.0
21/06:30pm 21.7 20.1 15.1 66 3.9 SSE 17 26 9 14 1016.2 - 0.0
21/06:00pm 22.0 20.0 14.9 64 4.2 SE 19 28 10 15 1015.9 1015.8 0.0
21/05:30pm 23.0 20.6 14.5 58 5.0 ESE 20 26 11 14 1015.4 - 0.0
21/05:00pm 24.1 21.2 14.1 53 5.9 ESE 22 30 12 16 1015.1 - 0.0
21/04:30pm 24.7 22.0 14.6 53 6.0 ESE 22 30 12 16 1014.9 - 0.0
21/04:00pm 25.2 22.4 14.2 50 6.5 ESE 22 32 12 17 1014.6 - 0.0
21/03:30pm 25.3 23.1 14.4 50 6.5 SE 19 28 10 15 1014.5 - 0.0
21/03:00pm 25.3 23.1 13.3 47 7.0 SSE 17 26 9 14 1014.7 1014.6 0.0
21/02:30pm 25.9 24.0 14.1 48 7.0 SSE 17 24 9 13 1014.9 - 0.0
21/02:00pm 25.3 24.5 13.9 49 6.7 S 11 19 6 10 1015.3 - 0.0
21/01:30pm 24.2 22.6 14.0 53 6.0 ESE 15 20 8 11 1015.7 - 0.0
21/01:00pm 24.6 22.6 13.9 51 6.3 SE 17 22 9 12 1016.0 - 0.0
21/12:30pm 24.3 21.9 13.9 52 6.1 ESE 19 28 10 15 1016.3 - 0.0
21/12:00pm 24.4 21.7 13.6 51 6.3 ESE 20 28 11 15 1016.8 1016.7 0.0
21/11:30am 24.7 22.1 13.2 48 6.7 ESE 19 24 10 13 1017.2 - 0.0
21/11:00am 24.5 23.3 14.1 52 6.1 E 13 22 7 12 1017.7 - 0.0
21/10:30am 24.9 23.7 15.0 54 5.9 ESE 15 20 8 11 1017.8 - 0.0
21/10:00am 24.6 23.7 14.9 54 5.8 SSE 13 19 7 10 1018.1 - 0.0
21/09:30am 23.6 22.7 14.8 57 5.2 SSE 13 20 7 11 1018.2 - 0.0
21/09:00am 23.5 22.4 15.3 60 4.9 SSE 15 19 8 10 1017.9 1017.8 0.0
21/08:30am 23.0 21.7 14.9 60 4.8 S 15 19 8 10 1017.8 - 0.0
21/08:00am 22.1 21.0 14.4 61 4.5 S 13 19 7 10 1017.6 - 0.0
21/07:30am 21.6 20.9 14.4 63 4.2 S 11 17 6 9 1017.2 - 0.0
21/07:00am 19.7 19.9 15.8 78 2.3 SE 9 13 5 7 1016.9 - 0.0
21/06:30am 18.7 20.4 16.2 85 1.5 NNW 2 7 1 4 1016.8 - 0.0
21/06:00am 19.1 19.8 16.1 83 1.8 SSE 7 11 4 6 1016.4 1016.3 0.0
21/05:30am 18.2 20.2 16.0 87 1.3 CALM 0 0 0 0 1016.2 - 0.0
21/05:00am 18.0 18.5 15.6 86 1.4 W 7 9 4 5 1015.9 - 0.0
21/04:30am 17.8 19.8 16.1 90 1.0 CALM 0 7 0 4 1015.8 - 0.0
21/04:00am 17.0 18.8 15.6 91 0.8 CALM 0 0 0 0 1015.8 - 0.0
21/03:30am 16.8 18.6 15.4 91 0.8 CALM 0 0 0 0 1016.0 - 0.0
21/03:00am 17.6 19.5 15.7 89 1.1 CALM 0 0 0 0 1016.0 1015.9 0.0
21/02:30am 17.9 19.9 16.0 89 1.1 CALM 0 0 0 0 1016.4 - 0.0
21/02:00am 17.7 19.7 16.0 90 1.0 CALM 0 0 0 0 1016.6 - 0.0
21/01:30am 17.5 19.3 15.6 89 1.1 CALM 0 0 0 0 1016.8 - 0.0
21/01:00am 17.4 19.1 15.3 87 1.2 CALM 0 0 0 0 1017.2 - 0.0
21/12:30am 17.7 18.3 15.3 86 1.4 NNW 6 7 3 4 1017.7 - 0.0
21/12:00am 18.3 19.7 15.4 83 1.7 N 2 9 1 5 1017.9 1017.8 0.0
 
Date/Time
EST
Temp
°C
App
Temp
°C
Dew
Point
Rel
Hum
%
Delta-T
°C
Wind Press
QNH
hPa
Press
MSL
hPa
Rain
since 9 am
mm
Dir
 
Spd
km/h
Gust
km/h
Spd
kts
Gust
kts
20/11:30pm 18.2 20.0 15.5 84 1.6 CALM 0 0 0 0 1018.1 - 0.0
20/11:00pm 21.1 20.4 13.2 60 4.5 S 9 11 5 6 1018.2 - 0.0
20/10:30pm 20.8 20.1 13.1 61 4.4 S 9 13 5 7 1018.2 - 0.0
20/10:00pm 20.4 19.7 13.2 63 4.1 S 9 15 5 8 1018.3 - 0.0
20/09:30pm 20.9 19.4 13.2 61 4.4 S 13 19 7 10 1018.5 - 0.0
20/09:00pm 20.5 19.6 13.7 65 3.9 S 11 19 6 10 1018.4 1018.3 0.0
20/08:30pm 20.5 19.3 14.1 66 3.7 S 13 20 7 11 1018.2 - 0.0
20/08:00pm 20.5 19.5 14.5 68 3.5 S 13 19 7 10 1018.0 - 0.0
20/07:30pm 20.5 19.5 14.7 69 3.4 S 13 20 7 11 1017.8 - 0.0

Other Formats:

Comma delimited format used in spreadsheet applications
http://www.bom.gov.au/fwo/IDQ60801/IDQ60801.94287.axf

JavaScript Object Notation format (JSON) in row-major order
http://www.bom.gov.au/fwo/IDQ60801/IDQ60801.94287.json